PROFILE

 METAR AND TAF INFORMATION
ADDS - METARS form results

(2029 UTC 25 September 2023)
http://aviationweather.gov/metar/data/
 
SABE 252000Z 11019KT CAVOK 15/08 Q1014 NOSIG RMK PP000
TAF SABE 251700Z 2518/2618 10015G25KT CAVOK TX18/2519Z TN11/2611Z BECMG 2604/2606 10010KT 9999 SCT020 OVC090 PROB40 2608/2610 9000 -RADZ FEW010 BKN020 OVC070 TEMPO 2612/2616 4000 RADZ SCT010 BKN050 

 AIRPORT MAP

 RUNWAY INFORMATION
Runway 13 Runway length 6890 ft Runway width 131 ft
Runway elevation 18 ft Runway displaced threshold 0 ft Runway heading 124
Runway 31 Runway length 6890 ft Runway width 131 ft
Runway elevation 15 ft Runway displaced threshold 417 ft Runway heading 304

 AIRPORT FREQUENCIES
Type APP Name APP Frequency 120.6 MHZ
Type ATIS Name ATIS Frequency 127.6 MHZ
Type CLD Name CLNC DEL Frequency 129.3 MHZ
Type GND Name GND Frequency 121.9 MHZ
Type TWR Name TWR Frequency 118.85 MHZ

 AIRPORT NEAR NAVIGATION AIDS
Type NDB Name Aeroparque Jorge Newbery Frequency 260 KHZ